createdAt,value
2022-08-18T00:00:14.370Z,17.79
2022-08-18T00:03:01.026Z,17.79
2022-08-18T00:05:36.298Z,17.81
2022-08-18T00:08:10.705Z,17.83
2022-08-18T00:10:43.427Z,17.85
2022-08-18T00:13:12.751Z,17.85
2022-08-18T00:15:49.196Z,17.88
2022-08-18T00:18:19.358Z,17.83
2022-08-18T00:20:50.301Z,17.80
2022-08-18T00:23:19.950Z,17.79
2022-08-18T00:25:50.263Z,17.75
2022-08-18T00:28:19.749Z,17.79
2022-08-18T00:30:53.898Z,17.85
2022-08-18T00:33:24.096Z,17.77
2022-08-18T00:35:55.408Z,17.76
2022-08-18T00:38:25.643Z,17.72
2022-08-18T00:40:57.594Z,17.68
2022-08-18T00:43:37.216Z,17.74
2022-08-18T00:46:09.923Z,17.72
2022-08-18T00:48:39.377Z,17.72
2022-08-18T00:51:16.917Z,17.64
2022-08-18T00:53:52.171Z,17.64
2022-08-18T00:56:27.774Z,17.62
2022-08-18T00:59:04.231Z,17.66
2022-08-18T01:01:35.772Z,17.71
2022-08-18T01:04:15.412Z,17.62
2022-08-18T01:06:53.589Z,17.62
2022-08-18T01:09:23.582Z,17.56
2022-08-18T01:11:53.280Z,17.50
2022-08-18T01:14:23.142Z,17.44
2022-08-18T01:17:10.740Z,17.41
2022-08-18T01:19:58.315Z,17.43
2022-08-18T01:22:37.381Z,17.41
2022-08-18T01:25:28.393Z,17.38
2022-08-18T01:28:00.734Z,17.40
2022-08-18T01:30:33.031Z,17.36
2022-08-18T01:33:02.493Z,17.34
2022-08-18T01:35:41.513Z,17.33
2022-08-18T01:38:11.534Z,17.29
2022-08-18T01:41:22.377Z,17.23
2022-08-18T01:43:34.455Z,17.23
2022-08-18T01:46:05.446Z,17.21
2022-08-18T01:48:38.025Z,17.13
2022-08-18T01:51:13.166Z,17.15
2022-08-18T01:53:42.889Z,17.05
2022-08-18T01:56:17.740Z,16.99
2022-08-18T01:58:48.657Z,16.98
2022-08-18T02:01:18.480Z,16.94
2022-08-18T02:04:06.095Z,16.81
2022-08-18T02:06:47.785Z,16.80
2022-08-18T02:09:23.808Z,16.85
2022-08-18T02:11:56.206Z,16.87
2022-08-18T02:14:27.397Z,16.80
2022-08-18T02:17:01.808Z,16.71
2022-08-18T02:19:36.690Z,16.66
2022-08-18T02:22:09.393Z,16.63
2022-08-18T02:24:39.581Z,16.61
2022-08-18T02:27:12.881Z,16.57
2022-08-18T02:29:43.368Z,16.61
2022-08-18T02:32:13.001Z,16.57
2022-08-18T02:34:42.829Z,16.54
2022-08-18T02:37:15.324Z,16.52
2022-08-18T02:39:45.715Z,16.56
2022-08-18T02:42:19.416Z,16.56
2022-08-18T02:44:48.934Z,16.51
2022-08-18T02:47:21.320Z,16.46
2022-08-18T02:49:51.105Z,16.43
2022-08-18T02:52:20.590Z,16.44
2022-08-18T02:54:50.362Z,16.41
2022-08-18T02:57:23.681Z,16.36
2022-08-18T02:59:53.394Z,16.31
2022-08-18T03:02:23.366Z,16.27
2022-08-18T03:04:52.843Z,16.28
2022-08-18T03:07:22.356Z,16.21
2022-08-18T03:09:52.109Z,16.19
2022-08-18T03:12:22.972Z,16.18
2022-08-18T03:14:52.493Z,16.15
2022-08-18T03:17:22.077Z,16.15
2022-08-18T03:19:51.563Z,16.14
2022-08-18T03:22:28.411Z,16.19
2022-08-18T03:24:59.712Z,16.17
2022-08-18T03:27:30.796Z,16.14
2022-08-18T03:30:00.661Z,16.16
2022-08-18T03:32:30.518Z,16.14
2022-08-18T03:34:59.973Z,16.06
2022-08-18T03:37:29.457Z,16.04
2022-08-18T03:39:58.961Z,16.03
2022-08-18T03:42:29.827Z,16.00
2022-08-18T03:44:59.509Z,15.97
2022-08-18T03:47:28.969Z,15.95
2022-08-18T03:49:59.444Z,15.95
2022-08-18T03:52:28.988Z,15.92
2022-08-18T03:54:59.049Z,15.84
2022-08-18T03:57:33.178Z,15.79
2022-08-18T04:00:12.043Z,15.78
2022-08-18T04:02:41.762Z,15.78
2022-08-18T04:05:12.863Z,15.78
2022-08-18T04:07:44.480Z,15.74
2022-08-18T04:10:19.467Z,15.71
2022-08-18T04:12:51.296Z,15.71
2022-08-18T04:15:21.053Z,15.71
2022-08-18T04:18:03.080Z,15.69
2022-08-18T04:20:33.902Z,15.68
2022-08-18T04:23:04.134Z,15.66
2022-08-18T04:25:33.721Z,15.61
2022-08-18T04:28:04.880Z,15.57
2022-08-18T04:30:34.475Z,15.53
2022-08-18T04:33:06.294Z,15.51
2022-08-18T04:35:35.857Z,15.50
2022-08-18T04:38:05.389Z,15.49
2022-08-18T04:40:34.906Z,15.49
2022-08-18T04:43:05.834Z,15.52
2022-08-18T04:45:36.333Z,15.53
2022-08-18T04:48:06.821Z,15.54
2022-08-18T04:50:38.111Z,15.59
2022-08-18T04:53:25.533Z,15.69
2022-08-18T04:55:57.610Z,15.73
2022-08-18T04:58:28.471Z,15.77
2022-08-18T05:01:01.841Z,15.78
2022-08-18T05:03:31.386Z,15.78
2022-08-18T05:06:05.316Z,15.83
2022-08-18T05:08:37.270Z,15.87
2022-08-18T05:11:07.269Z,15.94
2022-08-18T05:13:38.988Z,16.03
2022-08-18T05:16:11.884Z,16.12
2022-08-18T05:18:46.821Z,16.23
2022-08-18T05:21:16.628Z,16.32
2022-08-18T05:23:49.453Z,16.44
2022-08-18T05:26:20.929Z,16.54
2022-08-18T05:28:55.683Z,16.66
2022-08-18T05:31:41.112Z,16.83
2022-08-18T05:34:10.921Z,16.90
2022-08-18T05:37:23.573Z,17.01
2022-08-18T05:40:00.177Z,17.10
2022-08-18T05:42:36.699Z,17.10
2022-08-18T05:45:14.306Z,17.15
2022-08-18T05:47:44.665Z,17.18
2022-08-18T05:50:18.532Z,17.21
2022-08-18T05:52:56.723Z,17.23
2022-08-18T05:55:52.462Z,17.26
2022-08-18T05:58:33.100Z,17.31
2022-08-18T06:01:10.069Z,17.35
2022-08-18T06:03:50.473Z,17.40
2022-08-18T06:06:24.836Z,17.47
2022-08-18T06:09:05.676Z,17.47
2022-08-18T06:11:35.298Z,17.50
2022-08-18T06:14:05.073Z,17.53
2022-08-18T06:16:56.006Z,17.54
2022-08-18T06:19:47.234Z,17.52
2022-08-18T06:22:31.941Z,17.55
2022-08-18T06:25:13.518Z,17.56
2022-08-18T06:27:58.574Z,17.62
2022-08-18T06:30:47.156Z,17.64
2022-08-18T06:33:46.402Z,17.65
2022-08-18T06:36:29.331Z,17.66
2022-08-18T06:39:06.235Z,17.67
2022-08-18T06:41:43.484Z,17.68
2022-08-18T06:44:24.155Z,17.73
2022-08-18T06:47:04.144Z,17.73
2022-08-18T06:49:48.732Z,17.73
2022-08-18T06:52:30.457Z,17.74
2022-08-18T06:55:03.356Z,17.77
2022-08-18T06:57:38.110Z,17.82
2022-08-18T07:00:26.875Z,17.84
2022-08-18T07:03:10.499Z,17.88
2022-08-18T07:06:05.434Z,17.91
2022-08-18T07:08:40.141Z,18.01
2022-08-18T07:11:20.669Z,18.01
2022-08-18T07:14:09.418Z,18.11
2022-08-18T07:16:58.287Z,18.17
2022-08-18T07:19:32.959Z,18.23
2022-08-18T07:22:11.081Z,18.32
2022-08-18T07:24:44.262Z,18.40
2022-08-18T07:27:19.513Z,18.49
2022-08-18T07:30:07.609Z,18.65
2022-08-18T07:32:45.904Z,18.81
2022-08-18T07:35:23.868Z,18.92
2022-08-18T07:38:18.620Z,19.05
2022-08-18T07:40:57.665Z,19.15
2022-08-18T07:43:42.334Z,19.31
2022-08-18T07:46:19.045Z,19.42
2022-08-18T07:48:48.602Z,19.51
2022-08-18T07:51:33.854Z,19.64
2022-08-18T07:54:47.163Z,19.58
2022-08-18T07:57:20.830Z,19.57
2022-08-18T08:00:05.612Z,19.67
2022-08-18T08:03:01.035Z,19.79
2022-08-18T08:05:48.448Z,19.82
2022-08-18T08:08:31.455Z,19.89
2022-08-18T08:11:22.243Z,20.01
2022-08-18T08:14:24.267Z,20.13
2022-08-18T08:17:11.794Z,20.14
2022-08-18T08:20:08.407Z,20.18
2022-08-18T08:22:51.023Z,20.20
2022-08-18T08:25:45.629Z,20.29
2022-08-18T08:28:35.089Z,20.42
2022-08-18T08:31:35.555Z,20.53
2022-08-18T08:34:15.578Z,20.61
2022-08-18T08:36:49.161Z,20.58
2022-08-18T08:39:26.449Z,20.65
2022-08-18T08:42:31.904Z,20.73
2022-08-18T08:45:00.716Z,20.78
2022-08-18T08:47:38.256Z,20.84
2022-08-18T08:50:14.457Z,20.87
2022-08-18T08:52:49.013Z,20.92
2022-08-18T08:55:26.385Z,21.04
2022-08-18T08:58:18.360Z,21.18
2022-08-18T09:00:51.708Z,21.34
2022-08-18T09:03:41.436Z,21.51
2022-08-18T09:06:30.170Z,21.51
2022-08-18T09:09:25.182Z,21.66
2022-08-18T09:12:45.807Z,21.80
2022-08-18T09:15:56.449Z,21.98
2022-08-18T09:18:52.542Z,22.10
2022-08-18T09:21:38.626Z,22.21
2022-08-18T09:24:26.063Z,22.29
2022-08-18T09:27:26.525Z,22.40
2022-08-18T09:29:59.356Z,22.60
2022-08-18T09:32:58.113Z,22.80
2022-08-18T09:35:51.990Z,22.95
2022-08-18T09:38:48.670Z,23.03
2022-08-18T09:41:35.150Z,23.15
2022-08-18T09:47:02.645Z,23.42
2022-08-18T09:49:51.085Z,23.19
2022-08-18T09:50:37.282Z,23.44
2022-08-18T09:52:59.157Z,23.36
2022-08-18T09:56:05.113Z,23.26
2022-08-18T09:59:02.043Z,23.12
2022-08-18T10:01:42.532Z,23.49
2022-08-18T10:04:33.733Z,23.51
2022-08-18T10:07:38.848Z,23.56
2022-08-18T10:10:58.791Z,23.64
2022-08-18T10:13:25.125Z,23.70
2022-08-18T10:16:14.213Z,23.59
2022-08-18T10:19:05.932Z,23.91
2022-08-18T10:22:08.047Z,24.07
2022-08-18T10:24:47.994Z,23.96
2022-08-18T10:27:50.247Z,23.81
2022-08-18T10:31:10.192Z,23.70
2022-08-18T10:34:23.353Z,23.81
2022-08-18T10:36:58.987Z,24.10
2022-08-18T10:39:50.080Z,24.42
2022-08-18T10:42:31.297Z,24.72
2022-08-18T10:45:22.134Z,24.74
2022-08-18T10:48:17.335Z,24.91
2022-08-18T10:50:59.260Z,25.17
2022-08-18T10:53:39.787Z,25.16
2022-08-18T10:56:34.240Z,25.05
2022-08-18T10:59:28.642Z,24.87
2022-08-18T11:02:37.038Z,24.59
2022-08-18T11:05:11.330Z,24.47
2022-08-18T11:07:44.875Z,24.47
2022-08-18T11:10:31.895Z,24.51
2022-08-18T11:13:16.230Z,24.63
2022-08-18T11:16:02.960Z,24.66
2022-08-18T11:18:43.489Z,25.04
2022-08-18T11:21:41.761Z,25.51
2022-08-18T11:24:28.928Z,25.76
2022-08-18T11:27:02.894Z,25.52
2022-08-18T11:29:38.275Z,25.29
2022-08-18T11:32:18.019Z,25.08
2022-08-18T11:34:53.838Z,25.07
2022-08-18T11:37:49.260Z,25.12
2022-08-18T11:46:33.390Z,25.74
2022-08-18T11:49:24.032Z,25.88
2022-08-18T11:52:05.629Z,26.29
2022-08-18T11:54:50.972Z,26.77
2022-08-18T11:57:46.619Z,27.06
2022-08-18T12:03:49.546Z,26.80
2022-08-18T12:06:27.915Z,27.07
2022-08-18T12:09:04.990Z,27.47
2022-08-18T12:17:21.586Z,27.90
2022-08-18T12:19:52.923Z,27.78
2022-08-18T12:22:27.370Z,27.96
2022-08-18T12:24:57.039Z,28.09
2022-08-18T12:27:32.156Z,28.04
2022-08-18T12:30:03.298Z,28.00
2022-08-18T12:32:46.787Z,27.99
2022-08-18T12:35:22.590Z,28.12
2022-08-18T12:38:11.244Z,28.28
2022-08-18T12:40:43.916Z,28.42
2022-08-18T12:43:13.686Z,28.55
2022-08-18T12:45:43.766Z,28.56
2022-08-18T12:48:13.438Z,28.49
2022-08-18T12:50:54.711Z,28.42
2022-08-18T12:56:25.909Z,28.16
2022-08-18T12:58:55.835Z,28.10
2022-08-18T13:01:26.701Z,27.88
2022-08-18T13:04:12.576Z,27.75
2022-08-18T13:07:00.646Z,27.67
2022-08-18T13:09:52.752Z,27.64
2022-08-18T13:12:25.474Z,27.62
2022-08-18T13:14:55.831Z,27.61
2022-08-18T13:17:33.841Z,27.55
2022-08-18T13:20:09.975Z,27.54
2022-08-18T13:22:41.631Z,27.45
2022-08-18T13:25:33.237Z,27.49
2022-08-18T13:28:06.821Z,27.57
2022-08-18T13:30:36.557Z,27.62
2022-08-18T13:33:35.263Z,27.62
2022-08-18T13:35:57.722Z,27.59
2022-08-18T13:38:29.439Z,27.55
2022-08-18T13:41:03.523Z,27.51
2022-08-18T13:43:42.026Z,27.41
2022-08-18T13:46:15.889Z,27.29
2022-08-18T13:48:46.983Z,27.16
2022-08-18T13:51:24.980Z,27.05
2022-08-18T13:54:17.724Z,26.91
2022-08-18T13:56:51.329Z,26.77
2022-08-18T13:59:23.037Z,26.58
2022-08-18T14:01:53.949Z,26.53
2022-08-18T14:04:27.805Z,26.35
2022-08-18T14:06:59.042Z,26.23
2022-08-18T14:09:36.091Z,26.15
2022-08-18T14:12:22.972Z,26.08
2022-08-18T14:14:56.911Z,26.06
2022-08-18T14:17:28.116Z,26.06
2022-08-18T14:20:21.565Z,26.07
2022-08-18T14:23:11.772Z,26.06
2022-08-18T14:26:00.439Z,26.00
2022-08-18T14:28:31.734Z,25.96
2022-08-18T14:31:04.798Z,25.93
2022-08-18T14:33:50.295Z,25.90
2022-08-18T14:36:30.008Z,25.91
2022-08-18T14:39:00.448Z,25.83
2022-08-18T14:41:32.680Z,25.79
2022-08-18T14:44:13.627Z,25.75
2022-08-18T14:46:51.865Z,25.66
2022-08-18T14:49:29.113Z,25.57
2022-08-18T14:52:00.818Z,25.50
2022-08-18T14:54:31.404Z,25.43
2022-08-18T14:57:05.381Z,25.33
2022-08-18T14:59:37.681Z,25.25
2022-08-18T15:02:13.429Z,25.22
2022-08-18T15:04:53.129Z,25.11
2022-08-18T15:07:26.627Z,25.03
2022-08-18T15:10:15.226Z,25.00
2022-08-18T15:12:47.857Z,24.98
2022-08-18T15:15:19.395Z,24.88
2022-08-18T15:17:53.138Z,24.83
2022-08-18T15:20:29.620Z,24.75
2022-08-18T15:23:22.773Z,24.63
2022-08-18T15:25:58.873Z,24.61
2022-08-18T15:28:30.337Z,24.57
2022-08-18T15:33:51.075Z,24.48
2022-08-18T15:36:29.041Z,24.45
2022-08-18T15:38:59.940Z,24.42
2022-08-18T15:41:44.280Z,24.37
2022-08-18T15:44:19.261Z,24.36
2022-08-18T15:46:51.300Z,24.34
2022-08-18T15:49:23.900Z,24.33
2022-08-18T15:51:53.396Z,24.33
2022-08-18T15:54:23.039Z,24.32
2022-08-18T15:56:58.469Z,24.31
2022-08-18T15:59:40.018Z,24.27
2022-08-18T16:02:11.782Z,24.26
2022-08-18T16:04:48.579Z,24.21
2022-08-18T16:07:39.909Z,24.21
2022-08-18T16:10:10.388Z,24.17
2022-08-18T16:12:45.800Z,24.11
2022-08-18T16:15:21.454Z,24.09
2022-08-18T16:17:54.506Z,24.05
2022-08-18T16:20:24.988Z,23.98
2022-08-18T16:22:58.665Z,23.88
2022-08-18T16:25:29.149Z,23.80
2022-08-18T16:28:01.383Z,23.72
2022-08-18T16:30:33.584Z,23.62
2022-08-18T16:33:05.565Z,23.54
2022-08-18T16:35:37.288Z,23.47
2022-08-18T16:38:09.434Z,23.40
2022-08-18T16:40:40.303Z,23.30
2022-08-18T16:43:10.400Z,23.22
2022-08-18T16:45:42.868Z,23.11
2022-08-18T16:48:16.646Z,22.99
2022-08-18T16:50:47.138Z,22.87
2022-08-18T16:53:17.061Z,22.72
2022-08-18T16:55:46.912Z,22.60
2022-08-18T16:58:34.701Z,22.49
2022-08-18T17:01:23.525Z,22.43
2022-08-18T17:04:20.408Z,22.30
2022-08-18T17:06:51.451Z,22.17
2022-08-18T17:09:22.841Z,22.10
2022-08-18T17:11:52.985Z,22.04
2022-08-18T17:14:27.681Z,22.04
2022-08-18T17:17:00.516Z,21.94
2022-08-18T17:19:35.092Z,21.87
2022-08-18T17:22:08.100Z,21.78
2022-08-18T17:24:38.245Z,21.44
2022-08-18T17:27:26.246Z,21.20
2022-08-18T17:30:06.844Z,20.96
2022-08-18T17:32:48.416Z,20.77
2022-08-18T17:35:28.867Z,20.54
2022-08-18T17:38:08.435Z,20.08
2022-08-18T17:40:46.432Z,19.88
2022-08-18T17:43:21.880Z,19.67
2022-08-18T17:45:58.877Z,19.54
2022-08-18T17:48:37.237Z,19.24
2022-08-18T17:51:32.729Z,19.01
2022-08-18T17:54:19.011Z,18.84
2022-08-18T17:56:54.708Z,18.74
2022-08-18T17:59:46.144Z,18.60
2022-08-18T18:02:29.570Z,18.40
2022-08-18T18:05:05.356Z,18.31
2022-08-18T18:07:40.805Z,18.24
2022-08-18T18:10:16.974Z,18.13
2022-08-18T18:12:46.504Z,18.06
2022-08-18T18:15:32.121Z,18.01
2022-08-18T18:18:24.812Z,18.04
2022-08-18T18:21:08.686Z,17.98
2022-08-18T18:23:43.420Z,17.99
2022-08-18T18:26:29.417Z,17.98
2022-08-18T18:29:29.090Z,17.86
2022-08-18T18:32:04.104Z,17.82
2022-08-18T18:34:39.725Z,17.78
2022-08-18T18:37:29.499Z,17.84
2022-08-18T18:40:03.094Z,17.78
2022-08-18T18:42:36.973Z,17.76
2022-08-18T18:45:21.765Z,17.68
2022-08-18T18:48:05.455Z,17.65
2022-08-18T18:50:55.624Z,17.62
2022-08-18T18:53:45.456Z,17.63
2022-08-18T18:56:23.922Z,17.62
2022-08-18T18:59:14.077Z,17.60
2022-08-18T19:02:00.173Z,17.59
2022-08-18T19:04:38.550Z,17.57
2022-08-18T19:07:21.513Z,17.55
2022-08-18T19:10:00.224Z,17.51
2022-08-18T19:12:35.403Z,17.51
2022-08-18T19:15:14.601Z,17.54
2022-08-18T19:17:50.990Z,17.55
2022-08-18T19:20:28.165Z,17.50
2022-08-18T19:23:05.808Z,17.48
2022-08-18T19:25:46.808Z,17.46
2022-08-18T19:29:12.112Z,17.42
2022-08-18T19:31:32.753Z,17.46
2022-08-18T19:34:13.551Z,17.44
2022-08-18T19:36:56.129Z,17.41
2022-08-18T19:39:36.712Z,17.39
2022-08-18T19:42:18.622Z,17.34
2022-08-18T19:45:15.471Z,17.33
2022-08-18T19:47:55.576Z,17.34
2022-08-18T19:50:33.614Z,17.38
2022-08-18T19:53:31.160Z,17.47
2022-08-18T19:56:32.701Z,17.42
2022-08-18T20:00:14.514Z,17.45
2022-08-18T20:03:48.643Z,17.42
2022-08-18T20:06:36.028Z,17.41
2022-08-18T20:09:47.517Z,17.38
2022-08-18T20:12:48.108Z,17.44
2022-08-18T20:15:24.620Z,17.44
2022-08-18T20:18:22.758Z,17.48
2022-08-18T20:21:46.343Z,17.45
2022-08-18T20:24:48.382Z,17.51
2022-08-18T20:27:35.858Z,17.48
2022-08-18T20:30:33.937Z,17.45
2022-08-18T20:33:34.217Z,17.47
2022-08-18T20:36:27.049Z,17.47
2022-08-18T20:38:59.487Z,17.44
2022-08-18T20:41:50.596Z,17.44
2022-08-18T20:44:58.736Z,17.47
2022-08-18T20:48:13.839Z,17.46
2022-08-18T20:51:11.268Z,17.48
2022-08-18T20:54:13.646Z,17.50
2022-08-18T20:56:50.695Z,17.44
2022-08-18T20:59:30.584Z,17.48
2022-08-18T21:02:07.274Z,17.49
2022-08-18T21:04:52.982Z,17.52
2022-08-18T21:07:36.979Z,17.51
2022-08-18T21:10:21.280Z,17.51
2022-08-18T21:12:54.100Z,17.52
2022-08-18T21:15:29.083Z,17.50
2022-08-18T21:18:02.070Z,17.54
2022-08-18T21:20:35.166Z,17.55
2022-08-18T21:23:10.530Z,17.53
2022-08-18T21:25:52.545Z,17.55
2022-08-18T21:28:24.232Z,17.49
2022-08-18T21:31:42.965Z,17.51
2022-08-18T21:33:52.737Z,17.53
2022-08-18T21:36:31.697Z,17.51
2022-08-18T21:39:12.168Z,17.51
2022-08-18T21:41:48.173Z,17.49
2022-08-18T21:44:24.661Z,17.48
2022-08-18T21:47:07.061Z,17.42
2022-08-18T21:49:37.684Z,17.49
2022-08-18T21:52:08.551Z,17.47
2022-08-18T21:54:41.564Z,17.46
2022-08-18T21:57:26.285Z,17.53
2022-08-18T22:00:23.736Z,17.53
2022-08-18T22:03:20.422Z,17.49
2022-08-18T22:06:00.943Z,17.53
2022-08-18T22:08:49.771Z,17.44
2022-08-18T22:12:01.467Z,17.48
2022-08-18T22:14:55.215Z,17.43
2022-08-18T22:17:33.829Z,17.45
2022-08-18T22:20:46.390Z,17.42
2022-08-18T22:23:56.719Z,17.42
2022-08-18T22:26:30.657Z,17.41
2022-08-18T22:29:13.227Z,17.42
2022-08-18T22:31:47.047Z,17.41
2022-08-18T22:34:27.169Z,17.42
2022-08-18T22:37:02.646Z,17.42
2022-08-18T22:39:39.158Z,17.42
2022-08-18T22:42:10.617Z,17.40
2022-08-18T22:44:40.785Z,17.40
2022-08-18T22:47:11.092Z,17.34
2022-08-18T22:49:45.268Z,17.36
2022-08-18T22:52:29.889Z,17.33
2022-08-18T22:55:07.033Z,17.27
2022-08-18T22:57:37.417Z,17.25
2022-08-18T23:00:12.922Z,17.27
2022-08-18T23:02:43.385Z,17.22
2022-08-18T23:05:13.329Z,17.24
2022-08-18T23:07:43.277Z,17.19
2022-08-18T23:10:16.432Z,17.18
2022-08-18T23:12:48.725Z,17.14
2022-08-18T23:15:20.291Z,17.18
2022-08-18T23:17:49.783Z,17.13
2022-08-18T23:20:20.016Z,17.11
2022-08-18T23:22:49.644Z,17.11
2022-08-18T23:25:20.529Z,17.11
2022-08-18T23:27:52.623Z,17.08
2022-08-18T23:30:22.533Z,17.07
2022-08-18T23:32:52.175Z,17.11
2022-08-18T23:35:21.867Z,17.08
2022-08-18T23:37:51.321Z,17.01
2022-08-18T23:40:22.770Z,17.02
2022-08-18T23:42:52.400Z,17.02
2022-08-18T23:45:22.204Z,17.03
2022-08-18T23:47:52.793Z,17.04
2022-08-18T23:50:26.509Z,17.13
2022-08-18T23:52:58.221Z,17.10
2022-08-18T23:55:29.404Z,17.10
2022-08-18T23:57:58.881Z,17.08
